Shymkent, Kazakhstan

12:35 PM ALMT on July 31, 2014 (GMT +0600)
Shymkent (UAII) Elev 1385 ft | 42.37 °N, 69.48 °E | Change Station

Current weather conditions updated 35 minutes ago

Clear
Clear
82 °F
Feels Like 82 °F
N
16
Wind Variable Wind from NNE

Today is forecast to be Warmer than yesterday.

Today
High -- | Low -- °F
--% Chance of Precip.
Yesterday
High -- | Low -- °F
Precip. -- in
6:13 AM 8:43 PM
Waxing Crescent, 16% visible
Pressure 29.95 in
Visibility -9999.0 miles
Clouds
Dew Point 23 °F
Humidity 11%
Rainfall 0.00 in
Snow Depth Not available.
UV Not available.
Pollen Not available.
Air Quality Not available.
Flu Activity Not available.
METAR UAII 310600Z 02007MPS CAVOK 28/M05 Q1014 R10/0///70 NOSIG RMK QFE725/0967

More Conditions Fewer Conditions

Pressure 29.95 in
Visibility -9999.0 miles
Clouds
Dew Point 23 °F
Humidity 11%
Rainfall 0.00 in
Snow Depth Not available.
UV Not available.
Pollen Not available.
Air Quality Not available.
Flu Activity Not available.
METAR UAII 310600Z 02007MPS CAVOK 28/M05 Q1014 R10/0///70 NOSIG RMK QFE725/0967

More Conditions Fewer Conditions

10-Day Weather Forecast

Almanac

Astronomy

Jul. 31, 2014 Rise Set
Actual Time 6:13 AM ALMT 8:43 PM ALMT
Civil Twilight 5:41 AM ALMT 9:14 PM ALMT
Nautical Twilight 5:01 AM ALMT 9:54 PM ALMT
Astronomical Twilight 4:16 AM ALMT 10:39 PM ALMT
Moon 10:21 AM ALMT 10:36 PM ALMT
Length of Visible Light 15h 33m
Length of Day
14h 29m
Tomorrow will be 2m 8s shorter.
Waxing Crescent, 16% of the Moon is Illuminated
Today
Waxing Crescent
Aug 3
First Quarter
Aug 10
Full
Aug 17
Last Quarter
Aug 25
New

Yesterday's Extremes

Country Highs Country Lows

Community

WunderPhotos

Upload Photos

1,739,251 photos uploaded!

Nearby

Snow Depth

Not available.

Earthquake Activity

City Distance Mag. Time & Date
No recent earthquake activity has been reported nearby.
Minimum magnitude displayed is 2.5.

Coastal Water Temperatures

Place Temperature
No Stations Reporting

Nearby Weather Stations

There are no personal weather stations in this area.